Time;durP1;ratioP1;P1;durP2;ratioP2;P2;SDS_P1;SDS_P2;PMS_P1;PMS_P2;Temp;Humidity;BMP_temperature;BMP_pressure;BME280_temperature;BME280_humidity;BME280_pressure;Samples;Min_cycle;Max_cycle;Signal;HPM_P1;HPM_P2
2021/10/30 00:00:31;;;;;;;43.73;24.02;;;;;;;8.77;68.97;100562.81;1813428;79;25385;-48
2021/10/30 00:03:00;;;;;;;46.28;25.37;;;;;;;8.83;68.81;100556.80;1813550;78;25565;-52
2021/10/30 00:05:30;;;;;;;47.13;26.25;;;;;;;8.86;68.55;100553.52;1813484;79;25511;-51
2021/10/30 00:07:58;;;;;;;49.20;26.10;;;;;;;8.86;68.37;100544.88;1813421;79;27201;-47
2021/10/30 00:10:25;;;;;;;43.95;23.83;;;;;;;8.85;68.23;100545.16;1813330;79;25357;-46
2021/10/30 00:12:53;;;;;;;40.78;23.70;;;;;;;8.87;68.14;100559.15;1813463;79;25432;-47
2021/10/30 00:15:21;;;;;;;42.95;23.35;;;;;;;8.87;68.04;100554.58;1802247;79;27906;-48
2021/10/30 00:17:49;;;;;;;46.55;23.80;;;;;;;8.90;68.01;100548.58;1813455;79;25563;-51
2021/10/30 00:20:16;;;;;;;41.18;23.70;;;;;;;8.92;67.86;100556.38;1813559;79;27215;-50
2021/10/30 00:22:43;;;;;;;42.30;24.40;;;;;;;8.94;67.73;100554.22;1813329;78;25614;-48
2021/10/30 00:25:11;;;;;;;38.45;23.12;;;;;;;8.93;67.56;100557.45;1813434;79;25398;-47
2021/10/30 00:27:39;;;;;;;43.48;25.23;;;;;;;8.96;67.45;100554.72;1813363;79;25596;-50
2021/10/30 00:30:09;;;;;;;43.90;24.40;;;;;;;8.95;67.28;100561.20;1813416;79;25343;-49
2021/10/30 00:32:37;;;;;;;46.83;25.32;;;;;;;8.96;67.25;100555.52;1813361;78;27195;-48
2021/10/30 00:35:07;;;;;;;47.50;25.55;;;;;;;8.97;67.13;100561.19;1813424;79;25752;-52
2021/10/30 00:37:34;;;;;;;42.95;24.57;;;;;;;8.98;67.06;100556.02;1813553;79;25388;-49
2021/10/30 00:40:04;;;;;;;45.50;25.30;;;;;;;9.00;66.91;100553.59;1813333;79;27769;-49
2021/10/30 00:42:33;;;;;;;39.60;23.65;;;;;;;9.00;66.87;100554.39;1813479;79;25539;-49
2021/10/30 00:45:00;;;;;;;43.42;24.40;;;;;;;8.98;66.79;100552.53;1813421;79;27238;-51
2021/10/30 00:47:28;;;;;;;49.10;24.47;;;;;;;8.98;66.74;100556.02;1813309;79;27113;-47
2021/10/30 00:49:56;;;;;;;40.08;23.25;;;;;;;8.99;66.73;100564.94;1813514;79;25579;-50
2021/10/30 00:52:24;;;;;;;42.88;24.47;;;;;;;9.01;66.63;100560.58;1813338;79;25602;-48
2021/10/30 00:54:54;;;;;;;42.83;24.02;;;;;;;9.02;66.57;100563.54;1813420;79;25570;-50
2021/10/30 00:57:25;;;;;;;43.35;24.07;;;;;;;9.01;66.47;100560.05;1813447;79;27787;-47
2021/10/30 00:59:56;;;;;;;43.63;24.92;;;;;;;9.00;66.39;100557.64;1813364;78;25519;-47
2021/10/30 01:02:24;;;;;;;44.75;23.80;;;;;;;8.98;66.31;100559.27;1813421;79;25525;-48
2021/10/30 01:04:52;;;;;;;41.08;24.00;;;;;;;8.95;66.23;100561.20;1813345;79;27782;-49
2021/10/30 01:07:21;;;;;;;47.23;25.10;;;;;;;8.92;66.30;100557.20;1813452;79;25113;-47
2021/10/30 01:09:52;;;;;;;39.92;23.70;;;;;;;8.90;66.34;100563.41;1813521;78;27192;-49
2021/10/30 01:12:20;;;;;;;43.23;24.43;;;;;;;8.86;66.20;100558.36;1813286;79;25677;-50
2021/10/30 01:14:50;;;;;;;46.37;24.90;;;;;;;8.82;66.46;100557.34;1813384;79;25402;-47
2021/10/30 01:17:17;;;;;;;42.15;24.65;;;;;;;8.80;66.50;100554.11;1813378;78;25619;-49
2021/10/30 01:19:45;;;;;;;52.27;26.77;;;;;;;8.75;66.50;100553.66;1802293;79;25531;-48
2021/10/30 01:22:13;;;;;;;44.03;25.48;;;;;;;8.70;66.57;100553.72;1813394;79;28211;-47
2021/10/30 01:24:41;;;;;;;46.95;25.50;;;;;;;8.66;66.63;100541.89;1813337;79;25527;-48
2021/10/30 01:27:12;;;;;;;43.65;25.12;;;;;;;8.63;66.73;100549.77;1813413;79;25380;-51
2021/10/30 01:29:39;;;;;;;48.52;25.80;;;;;;;8.59;66.76;100551.69;1813417;78;25622;-49
2021/10/30 01:32:08;;;;;;;49.05;26.23;;;;;;;8.56;66.93;100554.98;1813407;79;25330;-53
2021/10/30 01:34:36;;;;;;;46.70;26.50;;;;;;;8.53;66.99;100548.81;1807555;78;27949;-50
2021/10/30 01:37:04;;;;;;;46.45;26.23;;;;;;;8.50;67.14;100548.59;1805375;79;25626;-50
2021/10/30 01:39:32;;;;;;;46.57;25.83;;;;;;;8.46;67.20;100549.69;1805847;79;25374;-49
2021/10/30 01:42:00;;;;;;;47.00;26.33;;;;;;;8.41;67.29;100543.80;1808112;78;26276;-49
2021/10/30 01:44:28;;;;;;;46.08;26.40;;;;;;;8.40;67.38;100545.44;1808265;78;25507;-49
2021/10/30 01:47:01;;;;;;;47.98;26.60;;;;;;;8.38;67.49;100545.72;1808171;79;28026;-49
2021/10/30 01:49:31;;;;;;;48.85;27.80;;;;;;;8.36;67.44;100546.56;1808133;78;25396;-51
2021/10/30 01:51:59;;;;;;;45.73;25.90;;;;;;;8.34;67.55;100547.92;1808278;79;25500;-49
2021/10/30 01:54:28;;;;;;;49.75;27.42;;;;;;;8.30;67.65;100546.34;1808072;79;26358;-52
2021/10/30 01:56:56;;;;;;;42.13;26.65;;;;;;;8.27;67.57;100545.56;1808168;79;25397;-49
2021/10/30 01:59:24;;;;;;;50.33;28.42;;;;;;;8.25;67.77;100549.10;1808093;79;27198;-51
2021/10/30 02:01:52;;;;;;;51.28;27.70;;;;;;;8.22;67.81;100542.93;1808156;79;25385;-49
2021/10/30 02:04:21;;;;;;;49.67;28.02;;;;;;;8.17;68.04;100539.77;1808159;79;25420;-48
2021/10/30 02:06:48;;;;;;;47.08;28.32;;;;;;;8.15;68.00;100542.48;1808263;79;32319;-48
2021/10/30 02:09:16;;;;;;;48.38;27.75;;;;;;;8.11;67.96;100536.07;1808146;79;25365;-50
2021/10/30 02:11:44;;;;;;;51.73;27.95;;;;;;;8.05;68.94;100536.64;1808110;79;28214;-48
2021/10/30 02:14:12;;;;;;;51.80;28.23;;;;;;;8.01;68.31;100537.77;1807992;79;25507;-49
2021/10/30 02:16:39;;;;;;;46.77;27.85;;;;;;;7.98;68.37;100534.84;1808137;79;25564;-48
2021/10/30 02:19:07;;;;;;;49.05;27.75;;;;;;;7.95;68.85;100530.02;1808088;78;25585;-48
2021/10/30 02:21:35;;;;;;;50.33;28.55;;;;;;;7.92;69.13;100538.14;1808244;79;25528;-50
2021/10/30 02:24:05;;;;;;;48.38;28.65;;;;;;;7.92;69.22;100536.00;1808079;78;27197;-47
2021/10/30 02:26:33;;;;;;;58.25;30.68;;;;;;;7.91;69.04;100534.38;1808045;79;25437;-48
2021/10/30 02:29:02;;;;;;;45.10;26.73;;;;;;;7.88;69.25;100537.09;1808254;78;25516;-47
2021/10/30 02:31:30;;;;;;;50.43;29.80;;;;;;;7.86;69.24;100539.27;1808063;79;25780;-47
2021/10/30 02:33:58;;;;;;;53.92;29.27;;;;;;;7.85;69.34;100543.86;1808006;79;25507;-49
2021/10/30 02:36:25;;;;;;;52.15;28.70;;;;;;;7.84;69.34;100540.11;1808116;79;27361;-52
2021/10/30 02:38:53;;;;;;;52.17;28.87;;;;;;;7.84;69.31;100546.84;1808008;79;25548;-53
2021/10/30 02:41:20;;;;;;;50.43;29.12;;;;;;;7.83;69.45;100543.35;1800360;78;25388;-51
2021/10/30 02:43:48;;;;;;;47.43;29.82;;;;;;;7.79;69.42;100546.33;1815688;78;25690;-53
2021/10/30 02:46:19;;;;;;;47.70;27.75;;;;;;;7.79;69.52;100549.58;1813539;79;25549;-51
2021/10/30 02:48:46;;;;;;;51.08;28.87;;;;;;;7.76;69.41;100552.83;1813548;79;27207;-51
2021/10/30 02:51:16;;;;;;;58.65;30.85;;;;;;;7.74;69.49;100549.63;1813428;79;25365;-51
2021/10/30 02:53:43;;;;;;;58.50;29.80;;;;;;;7.70;69.70;100549.39;1813612;78;25546;-49
2021/10/30 02:56:11;;;;;;;54.25;29.65;;;;;;;7.68;69.79;100546.19;1813458;79;25630;-49
2021/10/30 02:58:39;;;;;;;59.20;28.83;;;;;;;7.66;69.84;100548.33;1813570;78;25440;-51
2021/10/30 03:01:07;;;;;;;54.95;28.65;;;;;;;7.64;70.03;100548.64;1813541;78;27171;-50
2021/10/30 03:03:35;;;;;;;50.60;28.55;;;;;;;7.63;69.82;100548.92;1813451;79;25412;-53
2021/10/30 03:06:03;;;;;;;46.68;28.20;;;;;;;7.60;69.89;100554.31;1813629;79;25349;-49
2021/10/30 03:08:30;;;;;;;49.50;28.92;;;;;;;7.58;69.89;100543.59;1813481;79;25639;-50
2021/10/30 03:10:58;;;;;;;50.35;27.93;;;;;;;7.55;70.12;100546.28;1813491;79;25514;-52
2021/10/30 03:13:27;;;;;;;51.35;29.07;;;;;;;7.54;70.17;100555.98;1813570;79;27660;-49
2021/10/30 03:15:55;;;;;;;52.55;29.50;;;;;;;7.52;70.25;100557.61;1813520;79;25350;-52
2021/10/30 03:18:25;;;;;;;50.50;28.02;;;;;;;7.51;70.22;100555.20;1813520;79;25515;-51
2021/10/30 03:20:53;;;;;;;49.98;29.35;;;;;;;7.50;70.20;100557.64;1813708;79;26382;-50
2021/10/30 03:23:21;;;;;;;50.90;28.77;;;;;;;7.46;70.30;100562.23;1813548;79;25567;-49
2021/10/30 03:25:49;;;;;;;53.83;28.50;;;;;;;7.44;70.35;100562.24;1813523;78;28260;-54
2021/10/30 03:28:16;;;;;;;51.77;29.05;;;;;;;7.39;70.03;100559.07;1813517;79;25547;-53
2021/10/30 03:30:44;;;;;;;47.78;28.25;;;;;;;7.36;70.21;100554.24;1813467;79;25523;-52
2021/10/30 03:33:11;;;;;;;49.00;27.75;;;;;;;7.33;70.28;100557.48;1813524;79;25620;-53
2021/10/30 03:35:40;;;;;;;51.30;28.50;;;;;;;7.30;70.36;100558.05;1807490;79;25495;-50
2021/10/30 03:38:07;;;;;;;51.00;28.77;;;;;;;7.26;70.63;100557.80;1808073;79;27188;-49
2021/10/30 03:40:36;;;;;;;51.83;29.27;;;;;;;7.21;70.55;100558.39;1807919;78;25719;-49
2021/10/30 03:43:04;;;;;;;53.87;30.57;;;;;;;7.16;70.47;100555.73;1808012;79;25455;-49
2021/10/30 03:45:32;;;;;;;48.08;27.85;;;;;;;7.14;71.20;100561.94;1808028;79;25700;-49
2021/10/30 03:48:07;;;;;;;51.05;29.67;;;;;;;7.09;71.26;100565.46;1808035;79;25501;-49
2021/10/30 03:50:37;;;;;;;53.92;28.27;;;;;;;7.07;71.08;100564.39;1808066;78;27806;-49
2021/10/30 03:53:08;;;;;;;;;;;;;;;7.04;71.27;100562.80;1810644;79;25546;-47
2021/10/30 03:55:37;;;;;;;51.23;28.02;;;;;;;7.02;71.37;100561.73;1808006;79;25587;-49
2021/10/30 03:58:05;;;;;;;57.05;28.45;;;;;;;6.98;71.24;100555.83;1807994;79;25733;-48
2021/10/30 04:00:35;;;;;;;54.70;29.10;;;;;;;6.95;70.99;100555.04;1808309;79;25563;-48
2021/10/30 04:03:03;;;;;;;;;;;;;;;6.91;71.09;100557.48;1810749;79;27819;-48
2021/10/30 04:05:32;;;;;;;52.48;29.02;;;;;;;6.89;71.46;100563.69;1808071;78;25416;-48
2021/10/30 04:08:03;;;;;;;52.70;29.50;;;;;;;6.83;71.09;100560.78;1808002;78;25495;-48
2021/10/30 04:10:31;;;;;;;53.48;29.02;;;;;;;6.79;71.46;100562.39;1807990;78;25611;-49
2021/10/30 04:12:59;;;;;;;54.53;30.52;;;;;;;6.72;71.99;100551.94;1808066;78;25543;-49
2021/10/30 04:15:30;;;;;;;52.43;29.00;;;;;;;6.69;71.77;100560.55;1808013;79;27196;-49
2021/10/30 04:17:59;;;;;;;52.93;30.17;;;;;;;6.64;71.58;100563.27;1807968;79;25411;-50
2021/10/30 04:20:27;;;;;;;50.23;27.20;;;;;;;6.61;71.46;100562.50;1808177;78;25523;-51
2021/10/30 04:22:54;;;;;;;50.58;28.98;;;;;;;6.57;71.78;100562.77;1808072;79;26298;-52
2021/10/30 04:25:22;;;;;;;50.78;29.00;;;;;;;6.51;71.95;100556.61;1808036;79;25488;-51
2021/10/30 04:27:50;;;;;;;49.85;28.30;;;;;;;6.45;71.85;100555.84;1808026;79;27206;-50
2021/10/30 04:30:17;;;;;;;48.98;28.62;;;;;;;6.40;72.13;100555.83;1807939;79;25664;-49
2021/10/30 04:32:45;;;;;;;50.12;29.37;;;;;;;6.33;72.12;100556.67;1808025;78;25586;-49
2021/10/30 04:35:13;;;;;;;50.25;28.95;;;;;;;6.24;72.11;100560.45;1807991;78;25783;-50
2021/10/30 04:37:40;;;;;;;54.33;30.25;;;;;;;6.19;72.19;100565.05;1808049;79;25536;-49
2021/10/30 04:40:09;;;;;;;49.15;29.57;;;;;;;6.14;72.45;100557.80;1811598;78;27186;-48
2021/10/30 04:42:37;;;;;;;51.48;29.32;;;;;;;6.09;72.38;100553.78;1813406;79;25535;-49
2021/10/30 04:45:06;;;;;;;54.60;30.10;;;;;;;6.05;72.50;100558.89;1813395;79;25577;-48
2021/10/30 04:47:34;;;;;;;46.37;28.57;;;;;;;6.03;72.74;100565.09;1813529;78;26206;-49
2021/10/30 04:50:02;;;;;;;48.52;28.57;;;;;;;5.99;73.07;100561.31;1813448;79;25605;-50
2021/10/30 04:52:30;;;;;;;52.20;29.45;;;;;;;5.96;73.13;100562.67;1813432;79;27179;-49
2021/10/30 04:54:57;;;;;;;50.78;28.52;;;;;;;5.92;73.15;100561.56;1813258;79;25355;-50
2021/10/30 04:57:25;;;;;;;51.35;29.90;;;;;;;5.90;73.18;100555.66;1813401;78;25544;-49
2021/10/30 04:59:52;;;;;;;51.15;28.60;;;;;;;5.88;73.43;100553.00;1813390;79;25704;-50
2021/10/30 05:02:20;;;;;;;51.23;29.40;;;;;;;5.83;73.37;100551.12;1813445;78;25587;-48
2021/10/30 05:04:49;;;;;;;47.90;29.42;;;;;;;5.80;73.83;100547.62;1813400;78;27177;-48
2021/10/30 05:07:16;;;;;;;55.10;29.25;;;;;;;5.77;73.30;100550.84;1813335;79;25400;-48
2021/10/30 05:09:44;;;;;;;46.40;28.35;;;;;;;5.73;73.64;100549.24;1813356;78;25346;-51
2021/10/30 05:12:12;;;;;;;54.03;29.48;;;;;;;5.73;73.83;100554.61;1813353;78;25626;-50
2021/10/30 05:14:40;;;;;;;52.40;29.02;;;;;;;5.71;73.53;100542.00;1813466;79;25474;-48
2021/10/30 05:17:07;;;;;;;50.83;28.62;;;;;;;5.69;74.04;100532.08;1813359;79;27199;-49
2021/10/30 05:19:35;;;;;;;48.45;30.02;;;;;;;5.66;73.80;100537.98;1813285;79;25742;-48
2021/10/30 05:22:03;;;;;;;55.95;31.20;;;;;;;5.62;73.82;100535.58;1813362;78;25385;-47
2021/10/30 05:24:31;;;;;;;51.03;29.03;;;;;;;5.58;74.16;100530.47;1813644;78;25651;-48
2021/10/30 05:26:59;;;;;;;47.50;27.93;;;;;;;5.57;74.14;100536.93;1813383;79;25542;-48
2021/10/30 05:29:26;;;;;;;52.73;29.00;;;;;;;5.55;74.16;100530.48;1813368;79;27239;-49
2021/10/30 05:31:54;;;;;;;47.17;29.12;;;;;;;5.50;74.16;100530.48;1813386;78;25443;-49
2021/10/30 05:34:21;;;;;;;53.20;29.75;;;;;;;5.48;74.20;100531.27;1811843;78;25570;-48
2021/10/30 05:36:49;;;;;;;52.33;28.10;;;;;;;5.46;74.33;100529.40;1807452;79;25579;-52
2021/10/30 05:39:17;;;;;;;51.08;29.70;;;;;;;5.46;74.52;100529.94;1807989;79;25505;-50
2021/10/30 05:41:45;;;;;;;55.52;29.72;;;;;;;5.45;74.39;100535.86;1807967;79;27203;-51
2021/10/30 05:44:13;;;;;;;53.33;31.42;;;;;;;5.44;74.39;100539.59;1807872;79;25712;-50
2021/10/30 05:46:41;;;;;;;51.05;29.80;;;;;;;5.43;74.43;100536.13;1807979;79;25437;-49
2021/10/30 05:49:09;;;;;;;53.30;30.62;;;;;;;5.46;74.53;100546.04;1807921;79;25717;-51
2021/10/30 05:51:38;;;;;;;52.45;30.52;;;;;;;5.45;74.58;100543.08;1808203;78;25544;-50
2021/10/30 05:54:06;;;;;;;53.13;31.42;;;;;;;5.45;74.49;100545.25;1807934;79;29337;-51
2021/10/30 05:56:33;;;;;;;51.45;28.85;;;;;;;5.45;74.40;100545.25;1807844;79;25759;-51
2021/10/30 05:59:00;;;;;;;58.15;34.03;;;;;;;5.43;74.21;100542.00;1808016;78;25449;-51
2021/10/30 06:01:30;;;;;;;57.90;33.70;;;;;;;5.41;74.25;100543.64;1807943;79;25625;-49
2021/10/30 06:03:57;;;;;;;56.00;30.62;;;;;;;5.43;74.44;100540.66;1808148;79;25515;-52
2021/10/30 06:06:25;;;;;;;52.55;30.62;;;;;;;5.43;74.48;100541.48;1796835;79;27219;-49
2021/10/30 06:08:53;;;;;;;56.00;30.82;;;;;;;5.45;74.52;100543.91;1807816;79;25385;-50
2021/10/30 06:11:21;;;;;;;56.95;31.80;;;;;;;5.47;74.77;100540.95;1807943;78;25374;-49
2021/10/30 06:13:48;;;;;;;55.58;31.80;;;;;;;5.48;74.60;100546.57;1807955;78;25702;-48
2021/10/30 06:16:16;;;;;;;55.80;31.77;;;;;;;5.49;74.70;100550.88;1807958;79;25394;-53
2021/10/30 06:18:43;;;;;;;54.10;30.10;;;;;;;5.52;74.74;100554.37;1807930;79;27196;-48
2021/10/30 06:21:11;;;;;;;50.20;29.75;;;;;;;5.52;74.83;100551.14;1807863;78;25552;-52
2021/10/30 06:23:38;;;;;;;50.73;30.57;;;;;;;5.52;74.80;100555.17;1808031;79;25495;-53
2021/10/30 06:26:06;;;;;;;54.15;29.82;;;;;;;5.56;74.88;100557.56;1808053;79;25619;-52
2021/10/30 06:28:34;;;;;;;50.55;28.73;;;;;;;5.61;74.99;100560.80;1808105;79;25331;-53
2021/10/30 06:31:02;;;;;;;51.65;29.85;;;;;;;5.73;75.41;100565.34;1808157;78;27158;-50
2021/10/30 06:33:29;;;;;;;53.08;29.80;;;;;;;5.91;75.22;100567.23;1808138;79;25567;-48
2021/10/30 06:35:58;;;;;;;52.65;29.05;;;;;;;6.07;75.11;100569.37;1811588;78;25529;-48
2021/10/30 06:38:26;;;;;;;50.58;27.80;;;;;;;6.21;74.91;100569.61;1802519;79;26358;-48
2021/10/30 06:40:56;;;;;;;45.08;27.50;;;;;;;6.32;74.70;100569.85;1813510;78;25410;-49
2021/10/30 06:43:23;;;;;;;49.63;27.98;;;;;;;6.42;74.54;100567.13;1813564;78;29665;-53
2021/10/30 06:45:50;;;;;;;48.90;26.48;;;;;;;6.55;74.42;100565.72;1813402;79;25683;-52
2021/10/30 06:48:18;;;;;;;47.78;28.20;;;;;;;6.73;74.16;100569.69;1813495;78;25572;-52
2021/10/30 06:50:46;;;;;;;44.77;25.97;;;;;;;6.88;73.77;100570.95;1813478;79;25673;-48
2021/10/30 06:53:13;;;;;;;48.30;27.27;;;;;;;7.04;73.66;100568.98;1813537;79;25562;-48
2021/10/30 06:55:43;;;;;;;44.35;27.15;;;;;;;7.20;73.83;100570.22;1813447;79;29318;-48
2021/10/30 06:58:11;;;;;;;50.35;27.13;;;;;;;7.37;73.08;100573.35;1813438;79;25345;-51
2021/10/30 07:00:39;;;;;;;44.27;26.50;;;;;;;7.60;74.15;100569.13;1813547;78;25502;-53
2021/10/30 07:03:08;;;;;;;47.40;26.02;;;;;;;7.91;73.35;100572.89;1813485;78;26201;-54
2021/10/30 07:05:36;;;;;;;46.58;25.27;;;;;;;8.33;72.89;100571.94;1813650;79;25419;-48
2021/10/30 07:08:04;;;;;;;49.83;26.35;;;;;;;8.62;71.43;100574.59;1813475;78;27259;-47
2021/10/30 07:10:32;;;;;;;45.75;25.77;;;;;;;8.86;70.42;100578.59;1813660;79;25594;-47
2021/10/30 07:12:59;;;;;;;44.38;25.75;;;;;;;9.14;70.30;100586.84;1813460;79;25479;-47
2021/10/30 07:15:27;;;;;;;43.52;25.97;;;;;;;9.48;70.04;100587.14;1813427;79;25608;-48
2021/10/30 07:17:54;;;;;;;46.23;25.85;;;;;;;9.87;69.98;100582.70;1813486;79;25510;-48
2021/10/30 07:20:22;;;;;;;39.45;25.40;;;;;;;10.28;68.60;100579.81;1813463;78;27190;-49
2021/10/30 07:22:51;;;;;;;40.60;23.98;;;;;;;10.60;67.20;100579.50;1813398;79;25335;-48
2021/10/30 07:25:21;;;;;;;43.65;26.73;;;;;;;10.97;66.88;100577.09;1813630;79;25559;-48
2021/10/30 07:27:53;;;;;;;49.38;26.65;;;;;;;11.35;65.66;100577.33;1813466;79;25605;-48
2021/10/30 07:30:21;;;;;;;44.70;24.92;;;;;;;11.66;63.99;100569.24;1813503;79;25565;-47
2021/10/30 07:32:52;;;;;;;42.10;23.90;;;;;;;11.84;63.82;100571.52;1813493;78;27125;-48
2021/10/30 07:35:22;;;;;;;41.15;24.00;;;;;;;12.75;64.08;100572.03;1813149;78;25730;-47
2021/10/30 07:37:50;;;;;;;41.80;24.10;;;;;;;12.75;64.08;100572.03;1813497;79;25389;-48
2021/10/30 07:40:18;;;;;;;39.80;23.50;;;;;;;13.24;62.71;100571.36;1813423;79;25618;-49
2021/10/30 07:42:46;;;;;;;34.58;22.32;;;;;;;13.88;62.16;100575.31;1813483;78;25366;-46
2021/10/30 07:45:13;;;;;;;38.25;23.62;;;;;;;14.31;59.75;100569.47;1813486;78;27819;-47
2021/10/30 07:47:41;;;;;;;40.78;23.95;;;;;;;14.65;60.12;100567.73;1813353;79;25559;-49
2021/10/30 07:50:09;;;;;;;41.05;23.07;;;;;;;15.18;59.02;100570.88;1813477;78;25482;-49
2021/10/30 07:52:37;;;;;;;36.50;22.70;;;;;;;15.50;56.74;100570.10;1813414;79;25627;-53
2021/10/30 07:55:07;;;;;;;38.92;23.70;;;;;;;15.72;56.14;100570.86;1813588;79;25497;-52
2021/10/30 07:57:35;;;;;;;;;;;;;;;15.94;55.03;100571.63;1816169;79;27301;-52
2021/10/30 08:00:06;;;;;;;34.92;22.95;;;;;;;15.88;52.83;100575.12;1813415;79;25520;-54
2021/10/30 08:02:35;;;;;;;38.70;22.93;;;;;;;15.92;54.32;100565.69;1813489;79;25496;-51
2021/10/30 08:05:04;;;;;;;31.93;21.33;;;;;;;16.20;51.62;100570.73;1813579;79;25427;-49
2021/10/30 08:07:33;;;;;;;34.45;22.60;;;;;;;16.27;52.54;100573.48;1813628;79;25587;-50
2021/10/30 08:10:07;;;;;;;33.13;21.23;;;;;;;16.63;53.28;100559.00;1813423;79;27265;-51
2021/10/30 08:12:35;;;;;;;33.78;19.87;;;;;;;17.15;53.33;100565.07;1813392;78;25623;-51
2021/10/30 08:15:05;;;;;;;31.62;20.20;;;;;;;17.55;50.45;100568.34;1813420;79;25350;-48
2021/10/30 08:17:33;;;;;;;33.10;19.67;;;;;;;17.66;50.37;100569.98;1813396;79;25610;-52
2021/10/30 08:20:02;;;;;;;28.92;18.60;;;;;;;17.80;49.12;100561.94;1813462;79;25515;-51
2021/10/30 08:22:30;;;;;;;29.57;19.10;;;;;;;18.10;48.54;100567.81;1813586;79;27433;-50
2021/10/30 08:25:00;;;;;;;29.20;18.12;;;;;;;18.08;46.79;100565.98;1813333;79;25597;-52
2021/10/30 08:27:29;;;;;;;30.75;18.62;;;;;;;17.89;46.54;100567.50;1813345;78;25581;-51
2021/10/30 08:30:07;;;;;;;29.77;17.70;;;;;;;17.87;45.97;100567.03;1813473;79;25611;-53
2021/10/30 08:32:35;;;;;;;29.07;17.00;;;;;;;18.10;47.18;100565.86;1813505;78;25534;-50
2021/10/30 08:35:04;;;;;;;25.88;18.50;;;;;;;18.54;46.76;100557.28;1813174;78;27185;-53
2021/10/30 08:37:32;;;;;;;31.52;17.23;;;;;;;18.80;45.77;100560.82;1808126;78;25559;-50
2021/10/30 08:40:01;;;;;;;25.10;16.93;;;;;;;18.93;45.33;100551.91;1807987;78;25542;-51
2021/10/30 08:42:28;;;;;;;26.12;17.40;;;;;;;19.22;43.66;100553.28;1808094;79;25779;-49
2021/10/30 08:44:56;;;;;;;26.20;17.62;;;;;;;19.25;44.42;100553.94;1807989;79;25554;-52
2021/10/30 08:47:24;;;;;;;29.67;17.17;;;;;;;19.60;44.15;100551.08;1808005;79;27186;-50
2021/10/30 08:49:55;;;;;;;25.48;17.05;;;;;;;20.04;44.14;100547.73;1807924;79;25377;-52
2021/10/30 08:52:23;;;;;;;24.35;17.17;;;;;;;20.49;43.40;100553.73;1808058;79;25369;-50
2021/10/30 08:54:50;;;;;;;26.40;17.12;;;;;;;20.71;42.88;100546.63;1807927;79;25616;-48
2021/10/30 08:57:18;;;;;;;25.68;17.10;;;;;;;21.19;41.31;100547.42;1807952;79;25469;-48
2021/10/30 09:02:34;;;;;;;26.05;17.52;;;;;;;21.63;40.54;100563.26;1904659;74;25611;-47
2021/10/30 09:05:22;;;;;;;25.65;17.23;;;;;;;22.01;39.27;100562.64;1859191;77;25679;-48
2021/10/30 09:07:58;;;;;;;23.60;16.02;;;;;;;22.01;38.78;100553.01;1859173;76;28516;-48
2021/10/30 09:10:36;;;;;;;23.07;16.62;;;;;;;21.97;36.59;100556.30;1833870;77;25608;-47
2021/10/30 09:13:10;;;;;;;22.37;16.25;;;;;;;21.97;36.97;100544.50;1825245;78;25474;-49
2021/10/30 09:15:52;;;;;;;27.50;17.05;;;;;;;22.71;37.74;100539.91;1825445;78;25597;-47
2021/10/30 09:18:41;;;;;;;23.05;15.93;;;;;;;23.48;37.36;100544.77;1825504;78;25431;-51
2021/10/30 09:21:18;;;;;;;26.95;16.12;;;;;;;24.16;36.41;100545.44;1825538;78;25967;-48
2021/10/30 09:23:54;;;;;;;21.15;15.95;;;;;;;24.91;36.19;100536.20;1825450;78;25571;-47
2021/10/30 09:26:27;;;;;;;22.00;15.83;;;;;;;24.83;34.42;100538.80;1825482;78;25589;-46
2021/10/30 09:29:09;;;;;;;22.17;15.25;;;;;;;24.71;33.96;100546.94;1824999;78;25658;-47
2021/10/30 09:31:35;;;;;;;20.12;15.53;;;;;;;24.35;33.75;100538.70;1825426;78;25729;-47
2021/10/30 09:34:06;;;;;;;22.37;15.80;;;;;;;24.29;34.04;100531.20;1825400;78;27631;-47
2021/10/30 09:36:38;;;;;;;23.35;16.05;;;;;;;25.04;33.74;100532.37;1825351;78;25484;-48
2021/10/30 09:39:12;;;;;;;22.00;15.38;;;;;;;25.59;33.37;100531.50;1825352;77;25651;-48
2021/10/30 09:41:45;;;;;;;23.00;15.70;;;;;;;26.22;32.59;100535.57;1825341;78;25789;-50
2021/10/30 09:44:19;;;;;;;22.27;15.50;;;;;;;26.67;31.82;100539.70;1825447;78;25150;-49
2021/10/30 09:46:54;;;;;;;19.67;14.70;;;;;;;27.11;31.44;100540.75;1822573;78;27494;-46
2021/10/30 09:49:26;;;;;;;22.13;15.98;;;;;;;27.70;31.21;100535.96;1825330;78;25502;-47
2021/10/30 09:52:10;;;;;;;17.35;13.75;;;;;;;28.10;29.98;100531.97;1825405;78;25431;-47
2021/10/30 09:54:47;;;;;;;19.30;14.15;;;;;;;27.95;29.06;100528.03;1825395;78;25595;-48
2021/10/30 09:57:29;;;;;;;19.45;15.32;;;;;;;28.06;29.18;100525.08;1825319;78;25622;-50
2021/10/30 10:00:01;;;;;;;19.23;14.18;;;;;;;28.04;28.79;100519.14;1825089;77;27539;-49
2021/10/30 10:02:30;;;;;;;19.20;13.95;;;;;;;28.31;28.68;100515.48;1831073;78;25836;-46
2021/10/30 10:05:00;;;;;;;19.62;14.83;;;;;;;28.51;28.14;100516.29;1815504;78;25723;-47
2021/10/30 10:07:28;;;;;;;62.88;48.80;;;;;;;28.85;28.42;100506.13;1831443;78;25579;-49
2021/10/30 10:09:56;;;;;;;17.98;15.25;;;;;;;29.32;28.20;100507.90;1831591;76;25532;-47
2021/10/30 10:12:23;;;;;;;19.30;14.28;;;;;;;29.43;27.60;100506.43;1831334;78;27454;-47
2021/10/30 10:14:50;;;;;;;20.27;14.47;;;;;;;29.66;26.70;100500.54;1830919;78;25429;-47
2021/10/30 10:17:17;;;;;;;17.23;13.60;;;;;;;29.43;26.85;100502.88;1814625;78;25715;-47
2021/10/30 10:19:44;;;;;;;19.05;13.32;;;;;;;29.17;26.08;100510.24;1830819;78;27297;-47
2021/10/30 10:22:11;;;;;;;17.32;13.90;;;;;;;28.90;26.64;100505.61;1830853;78;25488;-50
2021/10/30 10:24:39;;;;;;;17.35;13.13;;;;;;;29.24;27.03;100501.72;1830877;78;27549;-49
2021/10/30 10:27:08;;;;;;;19.52;13.68;;;;;;;29.67;24.07;100505.50;1830818;78;25602;-48
2021/10/30 10:29:43;;;;;;;15.93;12.93;;;;;;;29.49;26.37;100491.39;1830845;78;25642;-49
2021/10/30 10:32:27;;;;;;;17.12;12.98;;;;;;;29.58;25.66;100487.38;1830233;77;25492;-47
2021/10/30 10:35:06;;;;;;;20.43;12.95;;;;;;;29.15;25.29;100477.81;1830911;78;25609;-52
2021/10/30 10:37:34;;;;;;;17.07;12.78;;;;;;;28.86;25.38;100483.42;1830881;78;27493;-46
2021/10/30 10:40:03;;;;;;;18.30;14.00;;;;;;;29.07;25.10;100481.39;1814849;77;25748;-46
2021/10/30 10:42:40;;;;;;;17.65;13.60;;;;;;;29.14;23.89;100471.47;1830906;78;25512;-47
2021/10/30 10:45:15;;;;;;;18.67;12.65;;;;;;;28.62;24.85;100470.22;1830834;78;25580;-48
2021/10/30 10:47:50;;;;;;;16.42;12.65;;;;;;;28.66;24.89;100466.74;1830896;78;25591;-49
2021/10/30 10:50:35;;;;;;;16.57;12.63;;;;;;;28.26;25.03;100463.92;1830740;77;27550;-48
2021/10/30 10:53:12;;;;;;;25.90;19.85;;;;;;;27.83;25.47;100464.69;1830785;78;25473;-48
2021/10/30 10:55:46;;;;;;;15.18;11.53;;;;;;;27.52;25.71;100457.09;1831119;77;25545;-50
2021/10/30 10:58:14;;;;;;;17.23;12.58;;;;;;;27.84;26.64;100452.96;1829724;78;25829;-48
2021/10/30 11:01:08;;;;;;;19.53;12.10;;;;;;;28.70;26.23;100440.23;1828223;76;25658;-49
2021/10/30 11:03:47;;;;;;;18.32;12.65;;;;;;;28.70;26.23;100440.23;1793707;80;28110;-50
2021/10/30 11:06:14;;;;;;;14.80;12.00;;;;;;;28.88;26.18;100432.89;1764644;80;25498;-49
2021/10/30 11:08:40;;;;;;;17.42;12.53;;;;;;;29.06;25.82;100432.47;1793618;80;25420;-48
2021/10/30 11:11:16;;;;;;;17.67;12.23;;;;;;;29.01;25.15;100437.97;1793659;80;25647;-47
2021/10/30 11:14:04;;;;;;;15.43;10.98;;;;;;;28.61;25.20;100435.87;1793733;80;25611;-52
2021/10/30 11:16:41;;;;;;;14.70;11.53;;;;;;;28.69;25.78;100438.06;1793657;79;27493;-51
2021/10/30 11:19:29;;;;;;;20.15;12.75;;;;;;;28.59;25.25;100437.69;1793659;80;25644;-52
2021/10/30 11:22:15;;;;;;;18.75;12.40;;;;;;;28.45;25.25;100447.67;1793123;80;25639;-54
2021/10/30 11:24:56;;;;;;;18.75;12.95;;;;;;;28.28;25.21;100446.23;1793681;80;25493;-53
2021/10/30 11:27:24;;;;;;;18.32;12.85;;;;;;;28.39;24.85;100441.06;1793323;80;25443;-53